sensor_id;sensor_type;location;lat;lon;timestamp;P1;P2;P0
62591;PMS5003;48659;41.622;2.276;2024-03-02T00:01:40;11;11;
62591;PMS5003;48659;41.622;2.276;2024-03-02T00:04:07;7;7;
62591;PMS5003;48659;41.622;2.276;2024-03-02T00:06:39;8;8;
62591;PMS5003;48659;41.622;2.276;2024-03-02T00:09:06;9;6;
62591;PMS5003;48659;41.622;2.276;2024-03-02T00:11:37;8;8;
62591;PMS5003;48659;41.622;2.276;2024-03-02T00:14:05;12;8;
62591;PMS5003;48659;41.622;2.276;2024-03-02T00:16:32;9;6;
62591;PMS5003;48659;41.622;2.276;2024-03-02T00:19:01;5;5;
62591;PMS5003;48659;41.622;2.276;2024-03-02T00:21:29;10;7;
62591;PMS5003;48659;41.622;2.276;2024-03-02T00:23:57;7;6;
62591;PMS5003;48659;41.622;2.276;2024-03-02T00:26:26;11;11;
62591;PMS5003;48659;41.622;2.276;2024-03-02T00:28:55;7;5;
62591;PMS5003;48659;41.622;2.276;2024-03-02T00:31:23;12;8;
62591;PMS5003;48659;41.622;2.276;2024-03-02T00:33:51;14;12;
62591;PMS5003;48659;41.622;2.276;2024-03-02T00:36:22;6;6;
62591;PMS5003;48659;41.622;2.276;2024-03-02T00:38:51;8;6;
62591;PMS5003;48659;41.622;2.276;2024-03-02T00:41:21;9;7;
62591;PMS5003;48659;41.622;2.276;2024-03-02T00:43:54;7;7;
62591;PMS5003;48659;41.622;2.276;2024-03-02T00:46:24;7;6;
62591;PMS5003;48659;41.622;2.276;2024-03-02T00:48:54;10;8;
62591;PMS5003;48659;41.622;2.276;2024-03-02T00:51:24;8;8;
62591;PMS5003;48659;41.622;2.276;2024-03-02T00:53:52;8;7;
62591;PMS5003;48659;41.622;2.276;2024-03-02T00:56:21;8;7;
62591;PMS5003;48659;41.622;2.276;2024-03-02T00:58:49;8;7;
62591;PMS5003;48659;41.622;2.276;2024-03-02T01:01:17;8;6;
62591;PMS5003;48659;41.622;2.276;2024-03-02T01:03:45;12;7;
62591;PMS5003;48659;41.622;2.276;2024-03-02T01:06:12;8;8;
62591;PMS5003;48659;41.622;2.276;2024-03-02T01:08:39;5;5;
62591;PMS5003;48659;41.622;2.276;2024-03-02T01:11:06;8;7;
62591;PMS5003;48659;41.622;2.276;2024-03-02T01:13:39;5;5;
62591;PMS5003;48659;41.622;2.276;2024-03-02T01:16:06;5;5;
62591;PMS5003;48659;41.622;2.276;2024-03-02T01:18:39;7;6;
62591;PMS5003;48659;41.622;2.276;2024-03-02T01:21:07;6;6;
62591;PMS5003;48659;41.622;2.276;2024-03-02T01:23:38;5;5;
62591;PMS5003;48659;41.622;2.276;2024-03-02T01:26:06;5;5;
62591;PMS5003;48659;41.622;2.276;2024-03-02T01:28:34;4;4;
62591;PMS5003;48659;41.622;2.276;2024-03-02T01:31:03;10;6;
62591;PMS5003;48659;41.622;2.276;2024-03-02T01:33:38;7;6;
62591;PMS5003;48659;41.622;2.276;2024-03-02T01:36:06;8;7;
62591;PMS5003;48659;41.622;2.276;2024-03-02T01:38:34;8;7;
62591;PMS5003;48659;41.622;2.276;2024-03-02T01:41:02;10;8;
62591;PMS5003;48659;41.622;2.276;2024-03-02T01:43:29;6;5;
62591;PMS5003;48659;41.622;2.276;2024-03-02T01:45:58;7;7;
62591;PMS5003;48659;41.622;2.276;2024-03-02T01:48:26;9;9;
62591;PMS5003;48659;41.622;2.276;2024-03-02T01:50:54;10;10;
62591;PMS5003;48659;41.622;2.276;2024-03-02T01:53:22;10;7;
62591;PMS5003;48659;41.622;2.276;2024-03-02T01:55:50;10;7;
62591;PMS5003;48659;41.622;2.276;2024-03-02T01:58:17;6;5;
62591;PMS5003;48659;41.622;2.276;2024-03-02T02:00:44;7;7;
62591;PMS5003;48659;41.622;2.276;2024-03-02T02:03:11;6;4;
62591;PMS5003;48659;41.622;2.276;2024-03-02T02:05:39;6;4;
62591;PMS5003;48659;41.622;2.276;2024-03-02T02:08:09;7;5;
62591;PMS5003;48659;41.622;2.276;2024-03-02T02:10:36;5;3;
62591;PMS5003;48659;41.622;2.276;2024-03-02T02:13:04;5;5;
62591;PMS5003;48659;41.622;2.276;2024-03-02T02:15:39;7;5;
62591;PMS5003;48659;41.622;2.276;2024-03-02T02:18:07;4;3;
62591;PMS5003;48659;41.622;2.276;2024-03-02T02:20:35;5;3;
62591;PMS5003;48659;41.622;2.276;2024-03-02T02:23:03;6;4;
62591;PMS5003;48659;41.622;2.276;2024-03-02T02:25:39;6;6;
62591;PMS5003;48659;41.622;2.276;2024-03-02T02:28:07;4;4;
62591;PMS5003;48659;41.622;2.276;2024-03-02T02:30:34;5;4;
62591;PMS5003;48659;41.622;2.276;2024-03-02T02:33:02;5;5;
62591;PMS5003;48659;41.622;2.276;2024-03-02T02:35:30;6;6;
62591;PMS5003;48659;41.622;2.276;2024-03-02T02:38:05;7;5;
62591;PMS5003;48659;41.622;2.276;2024-03-02T02:40:41;6;5;
62591;PMS5003;48659;41.622;2.276;2024-03-02T02:43:09;9;8;
62591;PMS5003;48659;41.622;2.276;2024-03-02T02:45:41;7;6;
62591;PMS5003;48659;41.622;2.276;2024-03-02T02:48:09;7;5;
62591;PMS5003;48659;41.622;2.276;2024-03-02T02:50:39;8;8;
62591;PMS5003;48659;41.622;2.276;2024-03-02T02:53:08;10;8;
62591;PMS5003;48659;41.622;2.276;2024-03-02T02:55:39;9;8;
62591;PMS5003;48659;41.622;2.276;2024-03-02T02:58:06;13;8;
62591;PMS5003;48659;41.622;2.276;2024-03-02T03:00:33;12;7;
62591;PMS5003;48659;41.622;2.276;2024-03-02T03:03:01;8;6;
62591;PMS5003;48659;41.622;2.276;2024-03-02T03:05:29;9;9;
62591;PMS5003;48659;41.622;2.276;2024-03-02T03:07:56;14;8;
62591;PMS5003;48659;41.622;2.276;2024-03-02T03:10:24;8;6;
62591;PMS5003;48659;41.622;2.276;2024-03-02T03:12:51;9;6;
62591;PMS5003;48659;41.622;2.276;2024-03-02T03:15:18;7;5;
62591;PMS5003;48659;41.622;2.276;2024-03-02T03:17:45;8;7;
62591;PMS5003;48659;41.622;2.276;2024-03-02T03:20:12;8;7;
62591;PMS5003;48659;41.622;2.276;2024-03-02T03:22:40;7;7;
62591;PMS5003;48659;41.622;2.276;2024-03-02T03:25:09;9;7;
62591;PMS5003;48659;41.622;2.276;2024-03-02T03:27:36;6;5;
62591;PMS5003;48659;41.622;2.276;2024-03-02T03:33:38;9;8;
62591;PMS5003;48659;41.622;2.276;2024-03-02T03:34:16;9;7;
62591;PMS5003;48659;41.622;2.276;2024-03-02T03:41:18;6;6;
62591;PMS5003;48659;41.622;2.276;2024-03-02T03:43:46;7;4;
62591;PMS5003;48659;41.622;2.276;2024-03-02T03:46:13;8;8;
62591;PMS5003;48659;41.622;2.276;2024-03-02T03:48:41;12;12;
62591;PMS5003;48659;41.622;2.276;2024-03-02T03:51:08;10;9;
62591;PMS5003;48659;41.622;2.276;2024-03-02T03:53:40;12;9;
62591;PMS5003;48659;41.622;2.276;2024-03-02T03:56:08;9;7;
62591;PMS5003;48659;41.622;2.276;2024-03-02T03:58:40;6;6;
62591;PMS5003;48659;41.622;2.276;2024-03-02T04:01:07;3;3;
62591;PMS5003;48659;41.622;2.276;2024-03-02T04:03:39;6;4;
62591;PMS5003;48659;41.622;2.276;2024-03-02T04:06:06;4;4;
62591;PMS5003;48659;41.622;2.276;2024-03-02T04:08:41;5;3;
62591;PMS5003;48659;41.622;2.276;2024-03-02T04:11:08;4;3;
62591;PMS5003;48659;41.622;2.276;2024-03-02T04:13:35;4;4;
62591;PMS5003;48659;41.622;2.276;2024-03-02T04:16:03;3;3;
62591;PMS5003;48659;41.622;2.276;2024-03-02T04:18:38;4;4;
62591;PMS5003;48659;41.622;2.276;2024-03-02T04:21:06;3;3;
62591;PMS5003;48659;41.622;2.276;2024-03-02T04:23:39;5;5;
62591;PMS5003;48659;41.622;2.276;2024-03-02T04:26:07;5;5;
62591;PMS5003;48659;41.622;2.276;2024-03-02T04:28:34;4;4;
62591;PMS5003;48659;41.622;2.276;2024-03-02T04:31:02;5;4;
62591;PMS5003;48659;41.622;2.276;2024-03-02T04:33:30;4;4;
62591;PMS5003;48659;41.622;2.276;2024-03-02T04:36:05;3;3;
62591;PMS5003;48659;41.622;2.276;2024-03-02T04:38:33;7;4;
62591;PMS5003;48659;41.622;2.276;2024-03-02T04:41:01;4;4;
62591;PMS5003;48659;41.622;2.276;2024-03-02T04:43:28;5;5;
62591;PMS5003;48659;41.622;2.276;2024-03-02T04:45:55;5;5;
62591;PMS5003;48659;41.622;2.276;2024-03-02T04:48:22;6;4;
62591;PMS5003;48659;41.622;2.276;2024-03-02T04:50:49;6;5;
62591;PMS5003;48659;41.622;2.276;2024-03-02T04:53:16;7;7;
62591;PMS5003;48659;41.622;2.276;2024-03-02T04:55:44;4;4;
62591;PMS5003;48659;41.622;2.276;2024-03-02T04:58:11;6;4;
62591;PMS5003;48659;41.622;2.276;2024-03-02T05:00:40;4;4;
62591;PMS5003;48659;41.622;2.276;2024-03-02T05:03:08;7;5;
62591;PMS5003;48659;41.622;2.276;2024-03-02T05:05:35;6;6;
62591;PMS5003;48659;41.622;2.276;2024-03-02T05:08:03;4;4;
62591;PMS5003;48659;41.622;2.276;2024-03-02T05:10:39;3;3;
62591;PMS5003;48659;41.622;2.276;2024-03-02T05:13:07;4;3;
62591;PMS5003;48659;41.622;2.276;2024-03-02T05:15:39;4;3;
62591;PMS5003;48659;41.622;2.276;2024-03-02T05:18:07;4;4;
62591;PMS5003;48659;41.622;2.276;2024-03-02T05:20:35;4;4;
62591;PMS5003;48659;41.622;2.276;2024-03-02T05:23:03;4;4;
62591;PMS5003;48659;41.622;2.276;2024-03-02T05:25:31;5;4;
62591;PMS5003;48659;41.622;2.276;2024-03-02T05:28:06;8;8;
62591;PMS5003;48659;41.622;2.276;2024-03-02T05:30:33;8;8;
62591;PMS5003;48659;41.622;2.276;2024-03-02T05:33:01;9;7;
62591;PMS5003;48659;41.622;2.276;2024-03-02T05:35:28;14;12;
62591;PMS5003;48659;41.622;2.276;2024-03-02T05:37:55;17;15;
62591;PMS5003;48659;41.622;2.276;2024-03-02T05:40:23;26;21;
62591;PMS5003;48659;41.622;2.276;2024-03-02T05:42:50;25;20;
62591;PMS5003;48659;41.622;2.276;2024-03-02T05:45:18;22;17;
62591;PMS5003;48659;41.622;2.276;2024-03-02T05:47:46;30;22;
62591;PMS5003;48659;41.622;2.276;2024-03-02T05:50:13;21;20;
62591;PMS5003;48659;41.622;2.276;2024-03-02T05:52:40;19;16;
62591;PMS5003;48659;41.622;2.276;2024-03-02T05:55:08;10;10;
62591;PMS5003;48659;41.622;2.276;2024-03-02T05:57:39;22;17;
62591;PMS5003;48659;41.622;2.276;2024-03-02T06:00:07;17;15;
62591;PMS5003;48659;41.622;2.276;2024-03-02T06:02:36;21;15;
62591;PMS5003;48659;41.622;2.276;2024-03-02T06:05:05;15;12;
62591;PMS5003;48659;41.622;2.276;2024-03-02T06:07:40;18;17;
62591;PMS5003;48659;41.622;2.276;2024-03-02T06:10:07;22;21;
62591;PMS5003;48659;41.622;2.276;2024-03-02T06:12:40;16;12;
62591;PMS5003;48659;41.622;2.276;2024-03-02T06:15:08;11;10;
62591;PMS5003;48659;41.622;2.276;2024-03-02T06:17:35;13;11;
62591;PMS5003;48659;41.622;2.276;2024-03-02T06:20:03;11;9;
62591;PMS5003;48659;41.622;2.276;2024-03-02T06:22:45;6;6;
62591;PMS5003;48659;41.622;2.276;2024-03-02T06:25:13;7;6;
62591;PMS5003;48659;41.622;2.276;2024-03-02T06:27:41;8;7;
62591;PMS5003;48659;41.622;2.276;2024-03-02T06:30:09;9;6;
62591;PMS5003;48659;41.622;2.276;2024-03-02T06:32:40;9;8;
62591;PMS5003;48659;41.622;2.276;2024-03-02T06:35:08;14;12;
62591;PMS5003;48659;41.622;2.276;2024-03-02T06:37:39;8;7;
62591;PMS5003;48659;41.622;2.276;2024-03-02T06:40:07;10;7;
62591;PMS5003;48659;41.622;2.276;2024-03-02T06:42:39;12;11;
62591;PMS5003;48659;41.622;2.276;2024-03-02T06:45:07;11;10;
62591;PMS5003;48659;41.622;2.276;2024-03-02T06:47:40;12;12;
62591;PMS5003;48659;41.622;2.276;2024-03-02T06:50:07;10;7;
62591;PMS5003;48659;41.622;2.276;2024-03-02T06:52:41;8;6;
62591;PMS5003;48659;41.622;2.276;2024-03-02T06:55:09;16;12;
62591;PMS5003;48659;41.622;2.276;2024-03-02T06:57:40;9;9;
62591;PMS5003;48659;41.622;2.276;2024-03-02T07:00:08;12;10;
62591;PMS5003;48659;41.622;2.276;2024-03-02T07:02:39;17;11;
62591;PMS5003;48659;41.622;2.276;2024-03-02T07:05:07;15;12;
62591;PMS5003;48659;41.622;2.276;2024-03-02T07:07:40;11;10;
62591;PMS5003;48659;41.622;2.276;2024-03-02T07:10:08;13;13;
62591;PMS5003;48659;41.622;2.276;2024-03-02T07:12:39;13;13;
62591;PMS5003;48659;41.622;2.276;2024-03-02T07:15:07;16;14;
62591;PMS5003;48659;41.622;2.276;2024-03-02T07:17:35;23;17;
62591;PMS5003;48659;41.622;2.276;2024-03-02T07:20:02;15;14;
62591;PMS5003;48659;41.622;2.276;2024-03-02T07:22:41;17;15;
62591;PMS5003;48659;41.622;2.276;2024-03-02T07:25:09;17;14;
62591;PMS5003;48659;41.622;2.276;2024-03-02T07:27:40;20;18;
62591;PMS5003;48659;41.622;2.276;2024-03-02T07:30:08;14;13;
62591;PMS5003;48659;41.622;2.276;2024-03-02T07:32:36;17;15;
62591;PMS5003;48659;41.622;2.276;2024-03-02T07:35:04;13;12;
62591;PMS5003;48659;41.622;2.276;2024-03-02T07:37:32;17;13;
62591;PMS5003;48659;41.622;2.276;2024-03-02T07:39:59;10;10;
62591;PMS5003;48659;41.622;2.276;2024-03-02T07:42:26;10;9;
62591;PMS5003;48659;41.622;2.276;2024-03-02T07:44:54;14;10;
62591;PMS5003;48659;41.622;2.276;2024-03-02T07:47:21;12;9;
62591;PMS5003;48659;41.622;2.276;2024-03-02T07:49:49;9;9;
62591;PMS5003;48659;41.622;2.276;2024-03-02T07:52:16;11;9;
62591;PMS5003;48659;41.622;2.276;2024-03-02T07:54:43;7;6;
62591;PMS5003;48659;41.622;2.276;2024-03-02T07:57:11;12;10;
62591;PMS5003;48659;41.622;2.276;2024-03-02T07:59:39;9;8;
62591;PMS5003;48659;41.622;2.276;2024-03-02T08:02:06;8;7;
62591;PMS5003;48659;41.622;2.276;2024-03-02T08:04:41;10;7;
62591;PMS5003;48659;41.622;2.276;2024-03-02T08:07:08;7;7;
62591;PMS5003;48659;41.622;2.276;2024-03-02T08:09:40;7;7;
62591;PMS5003;48659;41.622;2.276;2024-03-02T08:12:08;11;11;
62591;PMS5003;48659;41.622;2.276;2024-03-02T08:14:36;13;10;
62591;PMS5003;48659;41.622;2.276;2024-03-02T08:17:03;13;13;
62591;PMS5003;48659;41.622;2.276;2024-03-02T08:19:40;19;16;
62591;PMS5003;48659;41.622;2.276;2024-03-02T08:22:07;12;10;
62591;PMS5003;48659;41.622;2.276;2024-03-02T08:24:35;8;6;
62591;PMS5003;48659;41.622;2.276;2024-03-02T08:27:02;11;8;
62591;PMS5003;48659;41.622;2.276;2024-03-02T08:29:30;8;6;
62591;PMS5003;48659;41.622;2.276;2024-03-02T08:32:12;9;9;
62591;PMS5003;48659;41.622;2.276;2024-03-02T08:34:40;9;9;
62591;PMS5003;48659;41.622;2.276;2024-03-02T08:37:07;13;11;
62591;PMS5003;48659;41.622;2.276;2024-03-02T08:39:40;15;8;
62591;PMS5003;48659;41.622;2.276;2024-03-02T08:42:07;9;8;
62591;PMS5003;48659;41.622;2.276;2024-03-02T08:44:39;10;9;
62591;PMS5003;48659;41.622;2.276;2024-03-02T08:47:06;7;7;
62591;PMS5003;48659;41.622;2.276;2024-03-02T08:49:34;4;4;
62591;PMS5003;48659;41.622;2.276;2024-03-02T08:52:02;2;2;
62591;PMS5003;48659;41.622;2.276;2024-03-02T08:54:30;6;2;
62591;PMS5003;48659;41.622;2.276;2024-03-02T08:57:11;2;2;
62591;PMS5003;48659;41.622;2.276;2024-03-02T08:59:39;2;0;
62591;PMS5003;48659;41.622;2.276;2024-03-02T09:02:06;2;2;
62591;PMS5003;48659;41.622;2.276;2024-03-02T09:04:40;2;2;
62591;PMS5003;48659;41.622;2.276;2024-03-02T09:07:07;1;1;
62591;PMS5003;48659;41.622;2.276;2024-03-02T09:09:34;1;1;
62591;PMS5003;48659;41.622;2.276;2024-03-02T09:12:02;3;2;
62591;PMS5003;48659;41.622;2.276;2024-03-02T09:14:30;2;2;
62591;PMS5003;48659;41.622;2.276;2024-03-02T09:17:11;5;3;
62591;PMS5003;48659;41.622;2.276;2024-03-02T09:19:39;2;2;
62591;PMS5003;48659;41.622;2.276;2024-03-02T09:22:07;1;1;
62591;PMS5003;48659;41.622;2.276;2024-03-02T09:24:40;1;1;
62591;PMS5003;48659;41.622;2.276;2024-03-02T09:27:07;2;2;
62591;PMS5003;48659;41.622;2.276;2024-03-02T09:29:41;1;1;
62591;PMS5003;48659;41.622;2.276;2024-03-02T09:32:08;2;0;
62591;PMS5003;48659;41.622;2.276;2024-03-02T09:34:39;1;1;
62591;PMS5003;48659;41.622;2.276;2024-03-02T09:37:07;1;0;
62591;PMS5003;48659;41.622;2.276;2024-03-02T09:39:40;3;2;
62591;PMS5003;48659;41.622;2.276;2024-03-02T09:42:09;1;1;
62591;PMS5003;48659;41.622;2.276;2024-03-02T09:44:37;2;2;
62591;PMS5003;48659;41.622;2.276;2024-03-02T09:47:06;0;0;
62591;PMS5003;48659;41.622;2.276;2024-03-02T09:49:34;2;2;
62591;PMS5003;48659;41.622;2.276;2024-03-02T09:52:02;1;1;
62591;PMS5003;48659;41.622;2.276;2024-03-02T09:54:47;3;1;
62591;PMS5003;48659;41.622;2.276;2024-03-02T09:57:15;1;1;
62591;PMS5003;48659;41.622;2.276;2024-03-02T09:59:42;2;2;
62591;PMS5003;48659;41.622;2.276;2024-03-02T10:02:10;3;3;
62591;PMS5003;48659;41.622;2.276;2024-03-02T10:04:38;2;2;
62591;PMS5003;48659;41.622;2.276;2024-03-02T10:07:13;3;2;
62591;PMS5003;48659;41.622;2.276;2024-03-02T10:09:42;2;1;
62591;PMS5003;48659;41.622;2.276;2024-03-02T10:12:11;2;1;
62591;PMS5003;48659;41.622;2.276;2024-03-02T10:14:40;1;1;
62591;PMS5003;48659;41.622;2.276;2024-03-02T10:17:08;2;2;
62591;PMS5003;48659;41.622;2.276;2024-03-02T10:19:37;4;2;
62591;PMS5003;48659;41.622;2.276;2024-03-02T10:22:05;0;0;
62591;PMS5003;48659;41.622;2.276;2024-03-02T10:24:40;2;1;
62591;PMS5003;48659;41.622;2.276;2024-03-02T10:27:09;2;2;
62591;PMS5003;48659;41.622;2.276;2024-03-02T10:29:42;2;2;
62591;PMS5003;48659;41.622;2.276;2024-03-02T10:32:13;3;2;
62591;PMS5003;48659;41.622;2.276;2024-03-02T10:34:43;3;1;
62591;PMS5003;48659;41.622;2.276;2024-03-02T10:37:12;3;3;
62591;PMS5003;48659;41.622;2.276;2024-03-02T10:39:41;0;0;
62591;PMS5003;48659;41.622;2.276;2024-03-02T10:42:09;2;2;
62591;PMS5003;48659;41.622;2.276;2024-03-02T10:44:39;1;1;
62591;PMS5003;48659;41.622;2.276;2024-03-02T10:47:07;2;2;
62591;PMS5003;48659;41.622;2.276;2024-03-02T10:49:39;2;2;
62591;PMS5003;48659;41.622;2.276;2024-03-02T10:52:09;4;2;
62591;PMS5003;48659;41.622;2.276;2024-03-02T10:54:36;6;2;
62591;PMS5003;48659;41.622;2.276;2024-03-02T10:57:04;2;2;
62591;PMS5003;48659;41.622;2.276;2024-03-02T10:59:43;2;2;
62591;PMS5003;48659;41.622;2.276;2024-03-02T11:02:19;3;2;
62591;PMS5003;48659;41.622;2.276;2024-03-02T11:04:49;4;3;
62591;PMS5003;48659;41.622;2.276;2024-03-02T11:07:17;5;2;
62591;PMS5003;48659;41.622;2.276;2024-03-02T11:09:49;2;2;
62591;PMS5003;48659;41.622;2.276;2024-03-02T11:12:23;0;0;
62591;PMS5003;48659;41.622;2.276;2024-03-02T11:14:55;1;1;
62591;PMS5003;48659;41.622;2.276;2024-03-02T11:17:23;1;1;
62591;PMS5003;48659;41.622;2.276;2024-03-02T11:19:52;4;2;
62591;PMS5003;48659;41.622;2.276;2024-03-02T11:22:21;4;3;
62591;PMS5003;48659;41.622;2.276;2024-03-02T11:24:49;4;3;
62591;PMS5003;48659;41.622;2.276;2024-03-02T11:27:58;3;3;
62591;PMS5003;48659;41.622;2.276;2024-03-02T11:30:59;1;1;
62591;PMS5003;48659;41.622;2.276;2024-03-02T11:33:26;2;2;
62591;PMS5003;48659;41.622;2.276;2024-03-02T11:35:54;3;3;
62591;PMS5003;48659;41.622;2.276;2024-03-02T11:38:23;2;1;
62591;PMS5003;48659;41.622;2.276;2024-03-02T11:40:56;2;2;
62591;PMS5003;48659;41.622;2.276;2024-03-02T11:43:25;1;1;
62591;PMS5003;48659;41.622;2.276;2024-03-02T11:45:57;5;5;
62591;PMS5003;48659;41.622;2.276;2024-03-02T11:48:26;7;7;
62591;PMS5003;48659;41.622;2.276;2024-03-02T11:50:53;6;2;
62591;PMS5003;48659;41.622;2.276;2024-03-02T11:53:26;3;3;
62591;PMS5003;48659;41.622;2.276;2024-03-02T11:55:55;1;1;
62591;PMS5003;48659;41.622;2.276;2024-03-02T11:58:23;2;2;
62591;PMS5003;48659;41.622;2.276;2024-03-02T12:00:50;5;4;
62591;PMS5003;48659;41.622;2.276;2024-03-02T12:03:20;2;2;
62591;PMS5003;48659;41.622;2.276;2024-03-02T12:05:49;2;2;
62591;PMS5003;48659;41.622;2.276;2024-03-02T12:08:16;3;3;
62591;PMS5003;48659;41.622;2.276;2024-03-02T12:10:55;4;4;
62591;PMS5003;48659;41.622;2.276;2024-03-02T12:13:23;1;1;
62591;PMS5003;48659;41.622;2.276;2024-03-02T12:15:53;1;1;
62591;PMS5003;48659;41.622;2.276;2024-03-02T12:18:20;2;2;
62591;PMS5003;48659;41.622;2.276;2024-03-02T12:20:48;2;2;
62591;PMS5003;48659;41.622;2.276;2024-03-02T12:23:16;3;2;
62591;PMS5003;48659;41.622;2.276;2024-03-02T12:25:45;5;3;
62591;PMS5003;48659;41.622;2.276;2024-03-02T12:28:13;7;4;
62591;PMS5003;48659;41.622;2.276;2024-03-02T12:30:41;6;4;
62591;PMS5003;48659;41.622;2.276;2024-03-02T12:33:10;7;6;
62591;PMS5003;48659;41.622;2.276;2024-03-02T12:35:40;5;5;
62591;PMS5003;48659;41.622;2.276;2024-03-02T12:38:08;4;4;
62591;PMS5003;48659;41.622;2.276;2024-03-02T12:40:40;3;3;
62591;PMS5003;48659;41.622;2.276;2024-03-02T12:43:07;6;4;
62591;PMS5003;48659;41.622;2.276;2024-03-02T12:45:40;6;3;
62591;PMS5003;48659;41.622;2.276;2024-03-02T12:48:08;6;4;
62591;PMS5003;48659;41.622;2.276;2024-03-02T12:50:40;3;3;
62591;PMS5003;48659;41.622;2.276;2024-03-02T12:53:13;4;4;
62591;PMS5003;48659;41.622;2.276;2024-03-02T12:55:42;3;3;
62591;PMS5003;48659;41.622;2.276;2024-03-02T12:58:16;2;2;
62591;PMS5003;48659;41.622;2.276;2024-03-02T13:00:45;4;4;
62591;PMS5003;48659;41.622;2.276;2024-03-02T13:03:12;5;3;
62591;PMS5003;48659;41.622;2.276;2024-03-02T13:05:39;4;4;
62591;PMS5003;48659;41.622;2.276;2024-03-02T13:08:06;5;3;
62591;PMS5003;48659;41.622;2.276;2024-03-02T13:10:41;3;3;
62591;PMS5003;48659;41.622;2.276;2024-03-02T13:13:08;4;4;
62591;PMS5003;48659;41.622;2.276;2024-03-02T13:15:39;7;3;
62591;PMS5003;48659;41.622;2.276;2024-03-02T13:18:07;3;3;
62591;PMS5003;48659;41.622;2.276;2024-03-02T13:20:40;3;3;
62591;PMS5003;48659;41.622;2.276;2024-03-02T13:23:08;12;9;
62591;PMS5003;48659;41.622;2.276;2024-03-02T13:25:36;7;5;
62591;PMS5003;48659;41.622;2.276;2024-03-02T13:28:04;13;9;
62591;PMS5003;48659;41.622;2.276;2024-03-02T13:30:40;4;4;
62591;PMS5003;48659;41.622;2.276;2024-03-02T13:33:08;5;4;
62591;PMS5003;48659;41.622;2.276;2024-03-02T13:35:35;13;11;
62591;PMS5003;48659;41.622;2.276;2024-03-02T13:38:02;8;6;
62591;PMS5003;48659;41.622;2.276;2024-03-02T13:40:30;4;3;
62591;PMS5003;48659;41.622;2.276;2024-03-02T13:42:58;2;2;
62591;PMS5003;48659;41.622;2.276;2024-03-02T13:45:25;4;2;
62591;PMS5003;48659;41.622;2.276;2024-03-02T13:47:52;3;3;
62591;PMS5003;48659;41.622;2.276;2024-03-02T13:50:19;3;3;
62591;PMS5003;48659;41.622;2.276;2024-03-02T13:52:46;1;1;
62591;PMS5003;48659;41.622;2.276;2024-03-02T13:55:14;4;4;
62591;PMS5003;48659;41.622;2.276;2024-03-02T13:57:42;3;3;
62591;PMS5003;48659;41.622;2.276;2024-03-02T14:00:10;7;6;
62591;PMS5003;48659;41.622;2.276;2024-03-02T14:02:40;5;5;
62591;PMS5003;48659;41.622;2.276;2024-03-02T14:05:08;6;4;
62591;PMS5003;48659;41.622;2.276;2024-03-02T14:07:41;4;4;
62591;PMS5003;48659;41.622;2.276;2024-03-02T14:10:09;1;1;
62591;PMS5003;48659;41.622;2.276;2024-03-02T14:12:40;3;3;
62591;PMS5003;48659;41.622;2.276;2024-03-02T14:15:08;2;1;
62591;PMS5003;48659;41.622;2.276;2024-03-02T14:17:36;2;2;
62591;PMS5003;48659;41.622;2.276;2024-03-02T14:20:04;4;3;
62591;PMS5003;48659;41.622;2.276;2024-03-02T14:22:40;3;3;
62591;PMS5003;48659;41.622;2.276;2024-03-02T14:25:08;0;0;
62591;PMS5003;48659;41.622;2.276;2024-03-02T14:27:35;2;2;
62591;PMS5003;48659;41.622;2.276;2024-03-02T14:30:03;3;1;
62591;PMS5003;48659;41.622;2.276;2024-03-02T14:32:47;3;3;
62591;PMS5003;48659;41.622;2.276;2024-03-02T14:35:14;3;3;
62591;PMS5003;48659;41.622;2.276;2024-03-02T14:37:42;4;2;
62591;PMS5003;48659;41.622;2.276;2024-03-02T14:40:11;2;2;
62591;PMS5003;48659;41.622;2.276;2024-03-02T14:42:40;3;3;
62591;PMS5003;48659;41.622;2.276;2024-03-02T14:45:08;0;0;
62591;PMS5003;48659;41.622;2.276;2024-03-02T14:47:40;2;2;
62591;PMS5003;48659;41.622;2.276;2024-03-02T14:50:08;1;1;
62591;PMS5003;48659;41.622;2.276;2024-03-02T14:52:41;2;2;
62591;PMS5003;48659;41.622;2.276;2024-03-02T14:55:10;2;2;
62591;PMS5003;48659;41.622;2.276;2024-03-02T14:57:40;0;0;
62591;PMS5003;48659;41.622;2.276;2024-03-02T15:00:09;3;2;
62591;PMS5003;48659;41.622;2.276;2024-03-02T15:02:37;2;2;
62591;PMS5003;48659;41.622;2.276;2024-03-02T15:05:05;2;2;
62591;PMS5003;48659;41.622;2.276;2024-03-02T15:07:41;2;0;
62591;PMS5003;48659;41.622;2.276;2024-03-02T15:10:09;2;2;
62591;PMS5003;48659;41.622;2.276;2024-03-02T15:12:40;3;1;
62591;PMS5003;48659;41.622;2.276;2024-03-02T15:15:09;2;2;
62591;PMS5003;48659;41.622;2.276;2024-03-02T15:17:37;2;2;
62591;PMS5003;48659;41.622;2.276;2024-03-02T15:20:05;1;1;
62591;PMS5003;48659;41.622;2.276;2024-03-02T15:22:40;1;1;
62591;PMS5003;48659;41.622;2.276;2024-03-02T15:25:09;3;3;
62591;PMS5003;48659;41.622;2.276;2024-03-02T15:27:41;3;3;
62591;PMS5003;48659;41.622;2.276;2024-03-02T15:30:10;4;2;
62591;PMS5003;48659;41.622;2.276;2024-03-02T15:32:39;3;3;
62591;PMS5003;48659;41.622;2.276;2024-03-02T15:35:07;5;3;
62591;PMS5003;48659;41.622;2.276;2024-03-02T15:37:41;4;3;
62591;PMS5003;48659;41.622;2.276;2024-03-02T15:40:09;4;4;
62591;PMS5003;48659;41.622;2.276;2024-03-02T15:42:41;4;4;
62591;PMS5003;48659;41.622;2.276;2024-03-02T15:45:09;6;6;
62591;PMS5003;48659;41.622;2.276;2024-03-02T15:47:40;3;3;
62591;PMS5003;48659;41.622;2.276;2024-03-02T15:50:09;3;3;
62591;PMS5003;48659;41.622;2.276;2024-03-02T15:52:41;4;4;
62591;PMS5003;48659;41.622;2.276;2024-03-02T15:55:09;4;4;
62591;PMS5003;48659;41.622;2.276;2024-03-02T15:57:41;4;4;
62591;PMS5003;48659;41.622;2.276;2024-03-02T16:00:09;4;3;
62591;PMS5003;48659;41.622;2.276;2024-03-02T16:02:40;6;6;
62591;PMS5003;48659;41.622;2.276;2024-03-02T16:05:08;3;3;
62591;PMS5003;48659;41.622;2.276;2024-03-02T16:07:40;7;7;
62591;PMS5003;48659;41.622;2.276;2024-03-02T16:10:08;3;3;
62591;PMS5003;48659;41.622;2.276;2024-03-02T16:12:40;2;2;
62591;PMS5003;48659;41.622;2.276;2024-03-02T16:15:08;3;2;
62591;PMS5003;48659;41.622;2.276;2024-03-02T16:17:40;5;5;
62591;PMS5003;48659;41.622;2.276;2024-03-02T16:20:08;5;2;
62591;PMS5003;48659;41.622;2.276;2024-03-02T16:22:40;6;6;
62591;PMS5003;48659;41.622;2.276;2024-03-02T16:25:08;2;2;
62591;PMS5003;48659;41.622;2.276;2024-03-02T16:27:41;2;2;
62591;PMS5003;48659;41.622;2.276;2024-03-02T16:30:08;6;4;
62591;PMS5003;48659;41.622;2.276;2024-03-02T16:32:36;2;1;
62591;PMS5003;48659;41.622;2.276;2024-03-02T16:35:03;3;3;
62591;PMS5003;48659;41.622;2.276;2024-03-02T16:37:39;3;3;
62591;PMS5003;48659;41.622;2.276;2024-03-02T16:40:07;4;3;
62591;PMS5003;48659;41.622;2.276;2024-03-02T16:42:36;2;2;
62591;PMS5003;48659;41.622;2.276;2024-03-02T16:45:04;2;2;
62591;PMS5003;48659;41.622;2.276;2024-03-02T16:47:33;1;1;
62591;PMS5003;48659;41.622;2.276;2024-03-02T16:50:01;2;2;
62591;PMS5003;48659;41.622;2.276;2024-03-02T16:52:28;2;2;
62591;PMS5003;48659;41.622;2.276;2024-03-02T16:54:55;4;3;
62591;PMS5003;48659;41.622;2.276;2024-03-02T16:57:23;1;0;
62591;PMS5003;48659;41.622;2.276;2024-03-02T16:59:50;3;3;
62591;PMS5003;48659;41.622;2.276;2024-03-02T17:02:18;3;2;
62591;PMS5003;48659;41.622;2.276;2024-03-02T17:04:45;3;3;
62591;PMS5003;48659;41.622;2.276;2024-03-02T17:07:12;2;2;